Time,TemperatureF,DewpointF,PressureIn,WindDirection,WindDirectionDegrees,WindSpeedMPH,WindSpeedGustMPH,Humidity,HourlyPrecipIn,Conditions,Clouds,dailyrainin,SolarRadiationWatts/m^2,SoftwareType,DateUTC
2013-11-29 00:02:00,22.0,15.0,-100.00,SW,222,5.0,8.0,74,0.00,,,0.04,0.000000,,2013-11-29 05:02:00,
2013-11-29 00:12:00,22.0,15.0,-100.00,SW,222,5.0,8.0,74,0.00,,,0.04,0.000000,,2013-11-29 05:12:00,
2013-11-29 00:43:00,23.0,16.0,-100.00,WNW,290,5.0,11.0,74,0.00,,,0.04,0.000000,,2013-11-29 05:43:00,
2013-11-29 00:53:00,23.0,16.0,-100.00,WNW,290,5.0,11.0,74,0.00,,,0.04,0.000000,,2013-11-29 05:53:00,
2013-11-29 01:03:00,23.0,16.0,-100.00,WNW,290,5.0,11.0,74,0.00,,,0.04,0.000000,,2013-11-29 06:03:00,
2013-11-29 01:12:00,23.0,16.0,-100.00,WNW,290,5.0,11.0,74,0.00,,,0.04,0.000000,,2013-11-29 06:12:00,
2013-11-29 01:42:00,22.0,14.0,-100.00,NW,316,6.0,11.0,71,0.00,,,0.04,0.000000,,2013-11-29 06:42:00,
2013-11-29 01:52:00,22.0,14.0,-100.00,NW,316,6.0,11.0,71,0.00,,,0.04,0.000000,,2013-11-29 06:52:00,
2013-11-29 02:01:00,22.0,14.0,-100.00,NW,316,6.0,11.0,71,0.00,,,0.04,0.000000,,2013-11-29 07:01:00,
2013-11-29 02:12:00,22.0,14.0,-100.00,NW,316,6.0,11.0,71,0.00,,,0.04,0.000000,,2013-11-29 07:12:00,
2013-11-29 02:42:00,22.0,16.0,-100.00,NW,315,7.0,12.0,76,0.00,,,0.04,0.000000,,2013-11-29 07:42:00,
2013-11-29 02:52:00,22.0,16.0,-100.00,NW,315,7.0,12.0,76,0.00,,,0.04,0.000000,,2013-11-29 07:52:00,
2013-11-29 03:01:00,22.0,16.0,-100.00,NW,315,7.0,12.0,76,0.00,,,0.04,0.000000,,2013-11-29 08:01:00,
2013-11-29 03:11:00,22.0,16.0,-100.00,NW,315,7.0,12.0,76,0.00,,,0.04,0.000000,,2013-11-29 08:11:00,
2013-11-29 03:42:00,22.0,16.0,-100.00,NW,315,6.0,12.0,76,0.00,,,0.04,0.000000,,2013-11-29 08:42:00,
2013-11-29 03:53:00,22.0,16.0,-100.00,NW,315,6.0,12.0,76,0.00,,,0.04,0.000000,,2013-11-29 08:53:00,
2013-11-29 04:02:00,22.0,16.0,-100.00,NW,315,6.0,12.0,76,0.00,,,0.04,0.000000,,2013-11-29 09:02:00,
2013-11-29 04:12:00,22.0,16.0,-100.00,NW,315,6.0,12.0,76,0.00,,,0.04,0.000000,,2013-11-29 09:12:00,
2013-11-29 04:43:00,22.0,16.0,-100.00,NW,316,6.0,11.0,79,0.00,,,0.04,0.000000,,2013-11-29 09:43:00,
2013-11-29 04:53:00,22.0,16.0,-100.00,NW,316,6.0,11.0,79,0.00,,,0.04,0.000000,,2013-11-29 09:53:00,
2013-11-29 05:03:00,22.0,16.0,-100.00,NW,316,6.0,11.0,79,0.00,,,0.04,0.000000,,2013-11-29 10:03:00,
2013-11-29 05:13:00,22.0,16.0,-100.00,NW,316,6.0,11.0,79,0.00,,,0.04,0.000000,,2013-11-29 10:13:00,
2013-11-29 05:42:00,22.0,17.0,-100.00,NW,316,6.0,10.0,81,0.00,,,0.04,0.000000,,2013-11-29 10:42:00,
2013-11-29 05:52:00,22.0,17.0,-100.00,NW,316,6.0,10.0,81,0.00,,,0.04,0.000000,,2013-11-29 10:52:00,
2013-11-29 06:02:00,22.0,17.0,-100.00,NW,316,6.0,10.0,81,0.00,,,0.04,0.000000,,2013-11-29 11:02:00,
2013-11-29 06:12:00,22.0,17.0,-100.00,NW,316,6.0,10.0,81,0.00,,,0.04,0.000000,,2013-11-29 11:12:00,
2013-11-29 06:42:00,22.0,17.0,-100.00,NW,317,5.0,11.0,80,0.00,,,0.04,0.000000,,2013-11-29 11:42:00,
2013-11-29 06:52:00,22.0,17.0,-100.00,NW,317,5.0,11.0,80,0.00,,,0.04,0.000000,,2013-11-29 11:52:00,
2013-11-29 07:02:00,22.0,17.0,-100.00,NW,317,5.0,11.0,80,0.00,,,0.04,0.000000,,2013-11-29 12:02:00,
2013-11-29 07:12:00,22.0,17.0,-100.00,NW,317,5.0,11.0,80,0.00,,,0.04,0.000000,,2013-11-29 12:12:00,
2013-11-29 07:42:00,21.0,16.0,-100.00,NW,317,5.0,10.0,82,0.00,,,0.04,0.000000,,2013-11-29 12:42:00,
2013-11-29 07:52:00,21.0,16.0,-100.00,NW,317,5.0,10.0,82,0.00,,,0.04,0.000000,,2013-11-29 12:52:00,
2013-11-29 08:01:00,21.0,16.0,-100.00,NW,317,5.0,10.0,82,0.00,,,0.04,0.000000,,2013-11-29 13:01:00,
2013-11-29 08:11:00,21.0,16.0,-100.00,NW,317,5.0,10.0,82,0.00,,,0.04,0.000000,,2013-11-29 13:11:00,
2013-11-29 08:42:00,22.0,16.0,-100.00,NW,315,6.0,9.0,79,0.00,,,0.04,27.000000,,2013-11-29 13:42:00,
2013-11-29 08:52:00,22.0,16.0,-100.00,NW,315,6.0,9.0,79,0.00,,,0.04,27.000000,,2013-11-29 13:52:00,
2013-11-29 09:02:00,22.0,16.0,-100.00,NW,315,6.0,9.0,79,0.00,,,0.04,27.000000,,2013-11-29 14:02:00,
2013-11-29 09:11:00,22.0,16.0,-100.00,NW,315,6.0,9.0,79,0.00,,,0.04,27.000000,,2013-11-29 14:11:00,
2013-11-29 09:42:00,24.0,18.0,-100.00,NW,315,4.0,9.0,77,0.00,,,0.04,71.000000,,2013-11-29 14:42:00,
2013-11-29 09:52:00,24.0,18.0,-100.00,NW,315,4.0,9.0,77,0.00,,,0.04,71.000000,,2013-11-29 14:52:00,
2013-11-29 10:02:00,24.0,18.0,-100.00,NW,315,4.0,9.0,77,0.00,,,0.04,71.000000,,2013-11-29 15:02:00,
2013-11-29 10:11:00,24.0,18.0,-100.00,NW,315,4.0,9.0,77,0.00,,,0.04,71.000000,,2013-11-29 15:11:00,
2013-11-29 10:43:00,29.0,19.0,-100.00,NW,311,5.0,8.0,67,0.01,,,0.05,220.000000,,2013-11-29 15:43:00,
2013-11-29 10:53:00,29.0,19.0,-100.00,NW,311,5.0,8.0,67,0.01,,,0.05,220.000000,,2013-11-29 15:53:00,
2013-11-29 11:03:00,29.0,19.0,-100.00,NW,311,5.0,8.0,67,0.01,,,0.05,220.000000,,2013-11-29 16:03:00,
2013-11-29 11:13:00,29.0,19.0,-100.00,NW,311,5.0,8.0,67,0.01,,,0.05,220.000000,,2013-11-29 16:13:00,
2013-11-29 11:43:00,27.0,17.0,-100.00,NW,320,4.0,9.0,66,0.02,,,0.07,242.000000,,2013-11-29 16:43:00,
2013-11-29 11:53:00,27.0,17.0,-100.00,NW,320,4.0,9.0,66,0.02,,,0.07,242.000000,,2013-11-29 16:53:00,
2013-11-29 12:02:00,27.0,17.0,-100.00,NW,320,4.0,9.0,66,0.02,,,0.07,242.000000,,2013-11-29 17:02:00,
2013-11-29 12:12:00,27.0,17.0,-100.00,NW,320,4.0,9.0,66,0.02,,,0.07,242.000000,,2013-11-29 17:12:00,
2013-11-29 12:43:00,31.0,20.0,-100.00,NNW,327,4.0,9.0,64,0.00,,,0.07,272.000000,,2013-11-29 17:43:00,
2013-11-29 12:52:00,31.0,20.0,-100.00,NNW,327,4.0,9.0,64,0.00,,,0.07,272.000000,,2013-11-29 17:52:00,
2013-11-29 13:02:00,31.0,20.0,-100.00,NNW,327,4.0,9.0,64,0.00,,,0.07,272.000000,,2013-11-29 18:02:00,
2013-11-29 13:12:00,31.0,20.0,-100.00,NNW,327,4.0,9.0,64,0.00,,,0.07,272.000000,,2013-11-29 18:12:00,
2013-11-29 13:42:00,31.0,20.0,-100.00,NW,312,5.0,9.0,63,0.01,,,0.04,279.000000,,2013-11-29 18:42:00,
2013-11-29 13:52:00,31.0,20.0,-100.00,NW,312,5.0,9.0,63,0.01,,,0.04,279.000000,,2013-11-29 18:52:00,
2013-11-29 14:02:00,31.0,20.0,-100.00,NW,312,5.0,9.0,63,0.01,,,0.04,279.000000,,2013-11-29 19:02:00,
2013-11-29 14:11:00,31.0,20.0,-100.00,NW,312,5.0,9.0,63,0.01,,,0.04,279.000000,,2013-11-29 19:11:00,
2013-11-29 14:52:00,31.0,20.0,-100.00,NW,320,4.0,10.0,63,0.01,,,0.05,297.000000,,2013-11-29 19:52:00,
2013-11-29 15:02:00,31.0,20.0,-100.00,NW,320,4.0,10.0,63,0.01,,,0.05,297.000000,,2013-11-29 20:02:00,
2013-11-29 15:12:00,31.0,20.0,-100.00,NW,320,4.0,10.0,63,0.01,,,0.05,297.000000,,2013-11-29 20:12:00,
2013-11-29 15:42:00,30.0,19.0,-100.00,NW,314,4.0,9.0,64,0.00,,,0.05,201.000000,,2013-11-29 20:42:00,
2013-11-29 15:52:00,30.0,19.0,-100.00,NW,314,4.0,9.0,64,0.00,,,0.05,201.000000,,2013-11-29 20:52:00,
2013-11-29 16:02:00,30.0,19.0,-100.00,NW,314,4.0,9.0,64,0.00,,,0.05,201.000000,,2013-11-29 21:02:00,
2013-11-29 16:12:00,30.0,19.0,-100.00,NW,314,4.0,9.0,64,0.00,,,0.05,201.000000,,2013-11-29 21:12:00,
2013-11-29 16:43:00,26.0,17.0,-100.00,NNW,333,2.0,8.0,69,0.00,,,0.05,75.000000,,2013-11-29 21:43:00,
2013-11-29 16:53:00,26.0,17.0,-100.00,NNW,333,2.0,8.0,69,0.00,,,0.05,75.000000,,2013-11-29 21:53:00,
2013-11-29 17:03:00,26.0,17.0,-100.00,NNW,333,2.0,8.0,69,0.00,,,0.05,75.000000,,2013-11-29 22:03:00,
2013-11-29 17:13:00,26.0,17.0,-100.00,NNW,333,2.0,8.0,69,0.00,,,0.05,75.000000,,2013-11-29 22:13:00,
2013-11-29 17:43:00,24.0,16.0,-100.00,ESE,121,1.0,5.0,72,0.00,,,0.05,7.000000,,2013-11-29 22:43:00,
2013-11-29 17:53:00,24.0,16.0,-100.00,ESE,121,1.0,5.0,72,0.00,,,0.05,7.000000,,2013-11-29 22:53:00,
2013-11-29 18:02:00,24.0,16.0,-100.00,ESE,121,1.0,5.0,72,0.00,,,0.05,7.000000,,2013-11-29 23:02:00,
2013-11-29 18:12:00,24.0,16.0,-100.00,ESE,121,1.0,5.0,72,0.00,,,0.05,7.000000,,2013-11-29 23:12:00,
2013-11-29 18:42:00,23.0,17.0,-100.00,ESE,105,3.0,5.0,76,0.00,,,0.05,0.000000,,2013-11-29 23:42:00,
2013-11-29 18:52:00,23.0,17.0,-100.00,ESE,105,3.0,5.0,76,0.00,,,0.05,0.000000,,2013-11-29 23:52:00,
2013-11-29 19:02:00,23.0,17.0,-100.00,ESE,105,3.0,5.0,76,0.00,,,0.05,0.000000,,2013-11-30 00:02:00,
2013-11-29 19:11:00,23.0,17.0,-100.00,ESE,105,3.0,5.0,76,0.00,,,0.05,0.000000,,2013-11-30 00:11:00,
2013-11-29 19:42:00,23.0,17.0,-100.00,ESE,111,3.0,6.0,76,0.00,,,0.05,0.000000,,2013-11-30 00:42:00,
2013-11-29 19:52:00,23.0,17.0,-100.00,ESE,111,3.0,6.0,76,0.00,,,0.05,0.000000,,2013-11-30 00:52:00,
2013-11-29 20:02:00,23.0,17.0,-100.00,ESE,111,3.0,6.0,76,0.00,,,0.05,0.000000,,2013-11-30 01:02:00,
2013-11-29 20:11:00,23.0,17.0,-100.00,ESE,111,3.0,6.0,76,0.00,,,0.05,0.000000,,2013-11-30 01:11:00,
2013-11-29 20:42:00,21.0,15.0,-100.00,SE,125,4.0,6.0,76,0.00,,,0.05,0.000000,,2013-11-30 01:42:00,
2013-11-29 20:52:00,21.0,15.0,-100.00,SE,125,4.0,6.0,76,0.00,,,0.05,0.000000,,2013-11-30 01:52:00,
2013-11-29 21:01:00,21.0,15.0,-100.00,SE,125,4.0,6.0,76,0.00,,,0.05,0.000000,,2013-11-30 02:01:00,
2013-11-29 21:11:00,21.0,15.0,-100.00,SE,125,4.0,6.0,76,0.00,,,0.05,0.000000,,2013-11-30 02:11:00,
2013-11-29 21:42:00,20.0,15.0,-100.00,SE,139,4.0,6.0,79,0.00,,,0.05,0.000000,,2013-11-30 02:42:00,
2013-11-29 21:52:00,20.0,15.0,-100.00,SE,139,4.0,6.0,79,0.00,,,0.05,0.000000,,2013-11-30 02:52:00,
2013-11-29 22:02:00,20.0,15.0,-100.00,SE,139,4.0,6.0,79,0.00,,,0.05,0.000000,,2013-11-30 03:02:00,
2013-11-29 22:12:00,20.0,15.0,-100.00,SE,139,4.0,6.0,79,0.00,,,0.05,0.000000,,2013-11-30 03:12:00,
2013-11-29 22:43:00,19.0,15.0,-100.00,SE,138,4.0,5.0,83,0.00,,,0.05,0.000000,,2013-11-30 03:43:00,
2013-11-29 22:54:00,19.0,15.0,-100.00,SE,138,4.0,5.0,83,0.00,,,0.05,0.000000,,2013-11-30 03:54:00,
2013-11-29 23:03:00,19.0,15.0,-100.00,SE,138,4.0,5.0,83,0.00,,,0.05,0.000000,,2013-11-30 04:03:00,
2013-11-29 23:13:00,19.0,15.0,-100.00,SE,138,4.0,5.0,83,0.00,,,0.05,0.000000,,2013-11-30 04:13:00,
2013-11-29 23:43:00,19.0,15.0,-100.00,SE,137,4.0,6.0,83,0.00,,,0.05,0.000000,,2013-11-30 04:43:00,
2013-11-29 23:53:00,19.0,15.0,-100.00,SE,137,4.0,6.0,83,0.00,,,0.05,0.000000,,2013-11-30 04:53:00,